Time;durP1;ratioP1;P1;durP2;ratioP2;P2;SDS_P1;SDS_P2;PMS_P1;PMS_P2;Temp;Humidity;BMP_temperature;BMP_pressure;BME280_temperature;BME280_humidity;BME280_pressure;Samples;Min_cycle;Max_cycle;Signal;HPM_P1;HPM_P2
2022/05/22 00:00:07;;;;;;;13.82;6.88;;;;;;;;;;5017713;28;20517;-62
2022/05/22 00:02:33;;;;;;;14.43;6.78;;;;;;;;;;5009061;28;20121;-62
2022/05/22 00:04:59;;;;;;;19.38;6.95;;;;;;;;;;5013698;28;20200;-61
2022/05/22 00:07:25;;;;;;;14.25;6.30;;;;;;;;;;5012270;28;20064;-61
2022/05/22 00:09:51;;;;;;;12.45;5.28;;;;;;;;;;5006585;28;20061;-61
2022/05/22 00:12:17;;;;;;;12.98;6.20;;;;;;;;;;5007125;28;20050;-61
2022/05/22 00:14:43;;;;;;;11.25;6.20;;;;;;;;;;5012000;28;20049;-61
2022/05/22 00:17:09;;;;;;;11.35;5.72;;;;;;;;;;5015761;28;20053;-62
2022/05/22 00:19:36;;;;;;;9.35;5.55;;;;;;;;;;5021123;28;20046;-62
2022/05/22 00:22:03;;;;;;;12.30;6.15;;;;;;;;;;4994708;28;20054;-61
2022/05/22 00:24:30;;;;;;;9.70;4.93;;;;;;;;;;5021281;28;20045;-61
2022/05/22 00:26:56;;;;;;;12.60;6.10;;;;;;;;;;4993599;28;20447;-61
2022/05/22 00:29:22;;;;;;;17.05;6.55;;;;;;;;;;5001473;28;20061;-61
2022/05/22 00:31:48;;;;;;;8.88;6.30;;;;;;;;;;4995827;28;20033;-61
2022/05/22 00:34:15;;;;;;;11.38;6.38;;;;;;;;;;5033154;28;20132;-60
2022/05/22 00:36:41;;;;;;;10.45;5.18;;;;;;;;;;5010368;28;20053;-62
2022/05/22 00:39:07;;;;;;;12.07;6.78;;;;;;;;;;5014797;28;20461;-61
2022/05/22 00:41:34;;;;;;;12.77;6.75;;;;;;;;;;5010869;28;20100;-65
2022/05/22 00:44:01;;;;;;;9.65;5.32;;;;;;;;;;5031337;28;20095;-61
2022/05/22 00:46:27;;;;;;;12.68;5.93;;;;;;;;;;4995647;28;20081;-61
2022/05/22 00:48:55;;;;;;;17.25;6.78;;;;;;;;;;5012520;28;20064;-62
2022/05/22 00:51:24;;;;;;;14.77;6.18;;;;;;;;;;5001970;28;20054;-61
2022/05/22 00:54:02;;;;;;;12.45;6.28;;;;;;;;;;5012651;28;20052;-61
2022/05/22 00:56:35;;;;;;;13.55;7.45;;;;;;;;;;5008934;28;20453;-61
2022/05/22 00:59:01;;;;;;;12.52;6.30;;;;;;;;;;5028137;28;20124;-61
2022/05/22 01:01:27;;;;;;;9.90;5.45;;;;;;;;;;5014739;28;20069;-61
2022/05/22 01:03:55;;;;;;;12.43;6.68;;;;;;;;;;5027677;28;20071;-62
2022/05/22 01:06:24;;;;;;;18.75;7.43;;;;;;;;;;5010052;28;20042;-61
2022/05/22 01:08:51;;;;;;;10.95;5.45;;;;;;;;;;4976299;28;20054;-62
2022/05/22 01:11:23;;;;;;;9.45;5.22;;;;;;;;;;5013590;28;20132;-61
2022/05/22 01:13:56;;;;;;;15.50;6.82;;;;;;;;;;5031080;28;20049;-61
2022/05/22 01:16:24;;;;;;;20.63;5.97;;;;;;;;;;5017617;28;20050;-61
2022/05/22 01:18:52;;;;;;;13.23;6.13;;;;;;;;;;5026884;28;20052;-62
2022/05/22 01:21:20;;;;;;;16.27;7.43;;;;;;;;;;5015254;28;20053;-61
2022/05/22 01:23:47;;;;;;;11.07;5.55;;;;;;;;;;5010823;28;20061;-61
2022/05/22 01:26:13;;;;;;;8.80;5.30;;;;;;;;;;5014294;28;20172;-61
2022/05/22 01:28:39;;;;;;;12.23;6.07;;;;;;;;;;5011246;28;20050;-61
2022/05/22 01:31:05;;;;;;;11.30;6.38;;;;;;;;;;5024532;28;20056;-61
2022/05/22 01:33:33;;;;;;;8.55;5.53;;;;;;;;;;5028240;28;20041;-61
2022/05/22 01:35:59;;;;;;;8.48;5.18;;;;;;;;;;5010596;28;20058;-61
2022/05/22 01:38:25;;;;;;;7.03;4.55;;;;;;;;;;5031267;28;20059;-61
2022/05/22 01:40:51;;;;;;;8.38;4.70;;;;;;;;;;5011878;28;20499;-61
2022/05/22 01:43:17;;;;;;;8.52;5.30;;;;;;;;;;5022797;28;20042;-61
2022/05/22 01:45:43;;;;;;;7.07;4.82;;;;;;;;;;5014920;28;20043;-61
2022/05/22 01:48:10;;;;;;;7.28;5.22;;;;;;;;;;5030261;28;20494;-61
2022/05/22 01:50:36;;;;;;;11.40;5.82;;;;;;;;;;5008682;28;20041;-61
2022/05/22 01:53:03;;;;;;;10.52;5.53;;;;;;;;;;5031295;28;20072;-60
2022/05/22 01:55:29;;;;;;;9.55;5.70;;;;;;;;;;5036060;28;20081;-61
2022/05/22 01:57:54;;;;;;;6.53;5.13;;;;;;;;;;5025446;28;20088;-61
2022/05/22 02:00:23;;;;;;;8.77;5.70;;;;;;;;;;4997604;28;20058;-61
2022/05/22 02:02:49;;;;;;;9.65;5.32;;;;;;;;;;4997327;28;20144;-61
2022/05/22 02:05:16;;;;;;;7.78;5.15;;;;;;;;;;4992527;28;20585;-61
2022/05/22 02:10:28;;;;;;;10.60;5.70;;;;;;;;;;5028486;28;20049;-61
2022/05/22 02:12:54;;;;;;;10.00;6.20;;;;;;;;;;5027670;28;20042;-61
2022/05/22 02:15:21;;;;;;;10.90;6.32;;;;;;;;;;4996249;28;20078;-61
2022/05/22 02:17:47;;;;;;;17.33;7.93;;;;;;;;;;5008088;28;20514;-61
2022/05/22 02:20:13;;;;;;;13.00;5.75;;;;;;;;;;5033020;28;20494;-61
2022/05/22 02:22:43;;;;;;;14.98;7.25;;;;;;;;;;5032710;28;20124;-62
2022/05/22 02:25:10;;;;;;;12.20;6.43;;;;;;;;;;4993323;28;20053;-61
2022/05/22 02:27:36;;;;;;;13.05;6.88;;;;;;;;;;5006860;28;20088;-61
2022/05/22 02:30:02;;;;;;;7.70;4.95;;;;;;;;;;4999786;28;20057;-61
2022/05/22 02:32:29;;;;;;;9.93;5.57;;;;;;;;;;5029475;28;20550;-62
2022/05/22 02:34:55;;;;;;;13.55;6.50;;;;;;;;;;5032329;28;20042;-63
2022/05/22 02:37:21;;;;;;;9.82;6.13;;;;;;;;;;5033430;28;20052;-62
2022/05/22 02:39:48;;;;;;;9.43;5.47;;;;;;;;;;5014115;28;20153;-62
2022/05/22 02:42:14;;;;;;;9.82;5.00;;;;;;;;;;5013882;28;20045;-62
2022/05/22 02:44:40;;;;;;;8.23;4.60;;;;;;;;;;5014300;28;20119;-63
2022/05/22 02:47:06;;;;;;;6.53;4.97;;;;;;;;;;5014429;28;20038;-61
2022/05/22 02:49:33;;;;;;;7.55;4.60;;;;;;;;;;5014592;28;20049;-63
2022/05/22 02:52:00;;;;;;;8.23;4.97;;;;;;;;;;5014715;28;20052;-62
2022/05/22 02:54:26;;;;;;;8.40;4.47;;;;;;;;;;4995382;28;20049;-62
2022/05/22 02:56:52;;;;;;;8.32;4.30;;;;;;;;;;5017462;28;20136;-62
2022/05/22 02:59:18;;;;;;;6.75;4.32;;;;;;;;;;5013511;28;20041;-62
2022/05/22 03:01:44;;;;;;;13.98;5.88;;;;;;;;;;5030551;28;20139;-63
2022/05/22 03:04:10;;;;;;;8.38;4.72;;;;;;;;;;5009993;28;20053;-62
2022/05/22 03:06:39;;;;;;;8.68;4.82;;;;;;;;;;5013464;28;20041;-61
2022/05/22 03:09:05;;;;;;;14.10;5.13;;;;;;;;;;5024534;28;20045;-62
2022/05/22 03:11:31;;;;;;;8.52;4.32;;;;;;;;;;5006453;28;20459;-63
2022/05/22 03:13:58;;;;;;;7.65;4.57;;;;;;;;;;5011078;28;20128;-62
2022/05/22 03:16:24;;;;;;;10.55;5.13;;;;;;;;;;5001374;28;20053;-62
2022/05/22 03:18:50;;;;;;;10.05;4.70;;;;;;;;;;5025580;28;20045;-62
2022/05/22 03:21:17;;;;;;;5.90;4.72;;;;;;;;;;5014148;28;20073;-61
2022/05/22 03:23:43;;;;;;;9.75;4.95;;;;;;;;;;4999097;28;20049;-62
2022/05/22 03:26:09;;;;;;;7.95;4.40;;;;;;;;;;4999805;28;20041;-62
2022/05/22 03:28:36;;;;;;;9.45;5.68;;;;;;;;;;5031457;28;20148;-62
2022/05/22 03:31:02;;;;;;;11.25;5.65;;;;;;;;;;4992059;28;20119;-62
2022/05/22 03:33:28;;;;;;;11.10;4.60;;;;;;;;;;5009649;28;20461;-62
2022/05/22 03:35:54;;;;;;;9.32;5.70;;;;;;;;;;5014151;28;20049;-61
2022/05/22 03:38:20;;;;;;;11.88;5.60;;;;;;;;;;5008345;28;20045;-62
2022/05/22 03:40:47;;;;;;;8.40;4.90;;;;;;;;;;5026344;28;20084;-62
2022/05/22 03:43:16;;;;;;;7.72;5.45;;;;;;;;;;5009328;28;20045;-62
2022/05/22 03:45:44;;;;;;;6.80;4.70;;;;;;;;;;5016971;28;20495;-62
2022/05/22 03:48:10;;;;;;;7.03;5.05;;;;;;;;;;5014307;28;20402;-62
2022/05/22 03:50:36;;;;;;;5.97;4.15;;;;;;;;;;5011097;28;20056;-61
2022/05/22 03:53:02;;;;;;;5.95;4.60;;;;;;;;;;5033078;28;20053;-62
2022/05/22 03:55:29;;;;;;;6.70;4.43;;;;;;;;;;5013197;28;20402;-61
2022/05/22 03:57:56;;;;;;;6.25;3.75;;;;;;;;;;5022432;28;20073;-62
2022/05/22 04:00:23;;;;;;;6.70;4.30;;;;;;;;;;5030321;28;20053;-61
2022/05/22 04:02:49;;;;;;;8.18;4.20;;;;;;;;;;4994747;28;20041;-61
2022/05/22 04:05:15;;;;;;;8.95;4.38;;;;;;;;;;4993706;28;20053;-62
2022/05/22 04:07:42;;;;;;;4.78;4.15;;;;;;;;;;4984304;28;20042;-62
2022/05/22 04:10:09;;;;;;;6.30;4.70;;;;;;;;;;5032090;28;20037;-62
2022/05/22 04:12:36;;;;;;;10.13;5.00;;;;;;;;;;5007255;28;20085;-63
2022/05/22 04:15:04;;;;;;;9.68;5.95;;;;;;;;;;5014845;28;20534;-62
2022/05/22 04:17:30;;;;;;;9.05;5.28;;;;;;;;;;5021314;28;20088;-62
2022/05/22 04:19:56;;;;;;;9.73;5.25;;;;;;;;;;4977768;28;20046;-62
2022/05/22 04:22:22;;;;;;;7.50;5.38;;;;;;;;;;5018884;28;20049;-62
2022/05/22 04:27:36;;;;;;;6.68;4.78;;;;;;;;;;5011163;28;20064;-62
2022/05/22 04:30:03;;;;;;;8.95;5.00;;;;;;;;;;5031538;28;20053;-62
2022/05/22 04:32:31;;;;;;;8.55;5.47;;;;;;;;;;5027596;28;20497;-63
2022/05/22 04:34:57;;;;;;;9.88;5.80;;;;;;;;;;5031928;28;20083;-62
2022/05/22 04:37:23;;;;;;;7.70;5.95;;;;;;;;;;4994309;28;20077;-62
2022/05/22 04:39:49;;;;;;;7.18;5.20;;;;;;;;;;5011500;28;20112;-62
2022/05/22 04:42:15;;;;;;;14.35;7.60;;;;;;;;;;5007696;28;20053;-62
2022/05/22 04:44:41;;;;;;;10.45;6.47;;;;;;;;;;5009053;28;20045;-62
2022/05/22 04:47:07;;;;;;;11.05;6.00;;;;;;;;;;5009250;28;20073;-62
2022/05/22 04:49:33;;;;;;;12.60;6.03;;;;;;;;;;5027431;28;20401;-62
2022/05/22 04:52:00;;;;;;;9.65;5.70;;;;;;;;;;5009139;28;20080;-63
2022/05/22 04:54:26;;;;;;;10.38;6.63;;;;;;;;;;5012631;28;20061;-62
2022/05/22 04:56:53;;;;;;;9.45;6.88;;;;;;;;;;5013800;28;20498;-62
2022/05/22 04:59:19;;;;;;;12.10;6.65;;;;;;;;;;5032340;28;20045;-62
2022/05/22 05:01:45;;;;;;;10.23;6.75;;;;;;;;;;5031248;28;20406;-62
2022/05/22 05:04:14;;;;;;;12.88;7.88;;;;;;;;;;5032866;28;20056;-62
2022/05/22 05:06:40;;;;;;;12.30;7.07;;;;;;;;;;4983912;28;20097;-63
2022/05/22 05:09:06;;;;;;;10.98;6.70;;;;;;;;;;5013450;28;20571;-62
2022/05/22 05:11:32;;;;;;;9.23;7.00;;;;;;;;;;4997646;28;20096;-62
2022/05/22 05:13:58;;;;;;;11.45;7.30;;;;;;;;;;5006483;28;20048;-62
2022/05/22 05:16:24;;;;;;;10.45;7.13;;;;;;;;;;5023141;28;20472;-63
2022/05/22 05:18:50;;;;;;;10.23;7.03;;;;;;;;;;5012850;28;20168;-63
2022/05/22 05:21:17;;;;;;;12.77;7.43;;;;;;;;;;4996476;28;20057;-62
2022/05/22 05:23:44;;;;;;;12.82;7.85;;;;;;;;;;5007919;28;20042;-62
2022/05/22 05:26:10;;;;;;;12.80;7.43;;;;;;;;;;4997361;28;20053;-63
2022/05/22 05:28:36;;;;;;;12.27;6.50;;;;;;;;;;5028430;28;20050;-63
2022/05/22 05:31:03;;;;;;;10.60;7.40;;;;;;;;;;5009019;28;20041;-65
2022/05/22 05:33:31;;;;;;;15.27;8.68;;;;;;;;;;4990128;28;20052;-63
2022/05/22 05:35:57;;;;;;;13.00;7.22;;;;;;;;;;5014689;28;20403;-63
2022/05/22 05:38:23;;;;;;;13.40;8.65;;;;;;;;;;5009619;28;20137;-63
2022/05/22 05:40:49;;;;;;;17.08;7.97;;;;;;;;;;5028938;28;20521;-63
2022/05/22 05:43:16;;;;;;;15.15;7.88;;;;;;;;;;5029157;28;20057;-62
2022/05/22 05:45:42;;;;;;;15.13;8.50;;;;;;;;;;5010052;28;20052;-63
2022/05/22 05:48:08;;;;;;;13.52;7.88;;;;;;;;;;5014079;28;20056;-63
2022/05/22 05:50:34;;;;;;;16.83;8.20;;;;;;;;;;4994842;28;20045;-63
2022/05/22 05:53:01;;;;;;;13.63;8.32;;;;;;;;;;5011037;28;20553;-63
2022/05/22 05:55:28;;;;;;;15.02;8.00;;;;;;;;;;5023561;28;20149;-63
2022/05/22 05:57:54;;;;;;;16.73;7.10;;;;;;;;;;5005836;28;20081;-63
2022/05/22 06:00:22;;;;;;;12.85;6.80;;;;;;;;;;5011106;28;20033;-63
2022/05/22 06:02:48;;;;;;;12.00;6.25;;;;;;;;;;5005574;28;20050;-62
2022/05/22 06:05:14;;;;;;;14.65;7.90;;;;;;;;;;4997337;28;20053;-63
2022/05/22 06:07:40;;;;;;;11.80;6.32;;;;;;;;;;4980632;28;20049;-63
2022/05/22 06:10:07;;;;;;;15.60;6.68;;;;;;;;;;5028328;28;20045;-62
2022/05/22 06:12:34;;;;;;;14.93;6.82;;;;;;;;;;5008984;28;20042;-62
2022/05/22 06:15:00;;;;;;;16.35;6.57;;;;;;;;;;5009994;28;20498;-62
2022/05/22 06:17:33;;;;;;;15.68;6.18;;;;;;;;;;5030979;28;20042;-62
2022/05/22 06:20:00;;;;;;;12.43;5.95;;;;;;;;;;4996234;28;20077;-62
2022/05/22 06:22:28;;;;;;;13.18;5.40;;;;;;;;;;4993321;28;20132;-62
2022/05/22 06:24:54;;;;;;;11.38;5.22;;;;;;;;;;5010288;28;20046;-63
2022/05/22 06:27:20;;;;;;;10.43;5.63;;;;;;;;;;5010804;28;20510;-62
2022/05/22 06:29:47;;;;;;;12.02;4.70;;;;;;;;;;5027493;28;20038;-62
2022/05/22 06:32:14;;;;;;;12.23;4.57;;;;;;;;;;4990702;28;20050;-64
2022/05/22 06:34:41;;;;;;;12.35;4.85;;;;;;;;;;5006452;28;20137;-62
2022/05/22 06:37:07;;;;;;;11.68;4.45;;;;;;;;;;5013910;28;20556;-63
2022/05/22 06:39:50;;;;;;;15.15;4.30;;;;;;;;;;4995963;28;20079;-62
2022/05/22 06:42:27;;;;;;;10.60;3.80;;;;;;;;;;5012133;28;20509;-63
2022/05/22 06:44:57;;;;;;;11.48;4.28;;;;;;;;;;4996421;28;20050;-63
2022/05/22 06:47:23;;;;;;;14.68;5.20;;;;;;;;;;5013577;28;20502;-63
2022/05/22 06:49:50;;;;;;;9.32;4.30;;;;;;;;;;5026726;28;20383;-63
2022/05/22 06:52:16;;;;;;;9.07;3.65;;;;;;;;;;5012157;28;20049;-63
2022/05/22 06:54:42;;;;;;;7.07;3.30;;;16.50;99.90;;;;;;4994566;28;20469;-63
2022/05/22 06:57:08;;;;;;;7.20;3.45;;;;;;;;;;4997903;28;20105;-62
2022/05/22 06:59:34;;;;;;;11.45;3.78;;;;;;;;;;5001449;28;20054;-63
2022/05/22 07:02:00;;;;;;;9.52;3.65;;;;;;;;;;5028827;28;20041;-62
2022/05/22 07:04:27;;;;;;;9.98;3.30;;;;;;;;;;5019300;28;20048;-63
2022/05/22 07:06:54;;;;;;;9.63;2.97;;;;;;;;;;5019070;28;20041;-62
2022/05/22 07:09:20;;;;;;;11.13;3.45;;;;;;;;;;5031247;28;20053;-63
2022/05/22 07:11:47;;;;;;;6.95;3.08;;;;;;;;;;5019186;28;20034;-62
2022/05/22 07:14:14;;;;;;;11.38;3.75;;;;;;;;;;5025970;28;20081;-63
2022/05/22 07:16:40;;;;;;;12.38;3.60;;;;;;;;;;5032353;28;20042;-62
2022/05/22 07:19:07;;;;;;;8.05;3.10;;;;;;;;;;5026143;28;20052;-62
2022/05/22 07:21:33;;;;;;;8.35;3.00;;;;;;;;;;5033934;28;20375;-59
2022/05/22 07:24:02;;;;;;;13.00;3.50;;;;;;;;;;5034331;28;20107;-60
2022/05/22 07:26:29;;;;;;;8.70;3.00;;;18.10;99.90;;;;;;5028088;28;20041;-61
2022/05/22 07:28:58;;;;;;;14.05;3.15;;;;;;;;;;5034731;28;20457;-60
2022/05/22 07:31:25;;;;;;;10.20;3.05;;;18.20;99.90;;;;;;5029489;28;20576;-63
2022/05/22 07:33:52;;;;;;;7.90;2.80;;;18.40;99.90;;;;;;5026379;28;20095;-61
2022/05/22 07:36:21;;;;;;;12.98;3.13;;;18.70;99.90;;;;;;5032296;28;20033;-62
2022/05/22 07:38:47;;;;;;;12.45;3.30;;;;;;;;;;5025801;28;20034;-62
2022/05/22 07:41:14;;;;;;;11.75;3.15;;;;;;;;;;5029885;28;20048;-62
2022/05/22 07:43:41;;;;;;;10.63;3.00;;;;;;;;;;5008926;28;20083;-61
2022/05/22 07:46:08;;;;;;;11.60;2.65;;;18.60;99.90;;;;;;5032962;28;20091;-61
2022/05/22 07:48:34;;;;;;;12.25;2.85;;;18.60;99.90;;;;;;5031362;28;20052;-60
2022/05/22 07:51:02;;;;;;;9.32;3.17;;;18.50;99.90;;;;;;5026793;28;20092;-61
2022/05/22 07:53:29;;;;;;;7.07;2.40;;;18.30;99.90;;;;;;5023997;28;20049;-61
2022/05/22 07:55:55;;;;;;;8.43;3.13;;;;;;;;;;5013216;28;20509;-61
2022/05/22 07:58:25;;;;;;;12.02;2.97;;;18.60;99.90;;;;;;5031585;28;20129;-62
2022/05/22 08:00:52;;;;;;;10.18;3.30;;;;;;;;;;5008145;28;20038;-63
2022/05/22 08:03:19;;;;;;;11.23;3.05;;;;;;;;;;5033061;28;20104;-65
2022/05/22 08:05:45;;;;;;;11.25;2.63;;;;;;;;;;5013070;28;20379;-64
2022/05/22 08:08:12;;;;;;;13.50;3.13;;;;;;;;;;5011566;28;20413;-62
2022/05/22 08:10:39;;;;;;;11.15;2.60;;;19.50;99.90;;;;;;5017849;28;20034;-64
2022/05/22 08:13:06;;;;;;;10.55;2.30;;;19.40;99.90;;;;;;5030851;28;20039;-64
2022/05/22 08:15:33;;;;;;;8.73;2.63;;;19.50;99.90;;;;;;4996954;28;20039;-66
2022/05/22 08:18:00;;;;;;;11.90;2.47;;;19.80;99.90;;;;;;5008719;28;20045;-62
2022/05/22 08:20:28;;;;;;;10.00;3.40;;;19.90;99.90;;;;;;5026220;28;20041;-63
2022/05/22 08:22:58;;;;;;;7.13;2.40;;;20.00;99.90;;;;;;5016206;28;20144;-64
2022/05/22 08:25:26;;;;;;;7.32;1.92;;;20.00;99.90;;;;;;5013760;28;20056;-62
2022/05/22 08:27:52;;;;;;;9.25;2.28;;;19.90;99.90;;;;;;5027101;28;20049;-61
2022/05/22 08:30:20;;;;;;;6.60;2.92;;;19.80;99.90;;;;;;5032551;28;20051;-59
2022/05/22 08:32:47;;;;;;;10.07;2.58;;;20.60;99.90;;;;;;5012248;28;20125;-59
2022/05/22 08:35:17;;;;;;;10.63;2.42;;;19.90;99.90;;;;;;5024536;28;20034;-59
2022/05/22 08:37:43;;;;;;;7.85;2.22;;;;;;;;;;5017348;28;20042;-59
2022/05/22 08:40:11;;;;;;;8.48;2.35;;;20.30;99.90;;;;;;5014629;28;20147;-60
2022/05/22 08:42:41;;;;;;;8.05;2.58;;;20.20;99.90;;;;;;5015601;28;20521;-59
2022/05/22 08:45:17;;;;;;;11.20;2.47;;;20.30;99.90;;;;;;5020080;28;20045;-60
2022/05/22 08:48:06;;;;;;;9.70;1.98;;;20.30;99.90;;;;;;5029427;28;20099;-57
2022/05/22 08:50:35;;;;;;;10.55;2.30;;;20.40;99.90;;;;;;5002743;28;20045;-59
2022/05/22 08:53:11;;;;;;;5.40;1.73;;;20.60;99.90;;;;;;4994091;28;20089;-58
2022/05/22 08:58:57;;;;;;;8.95;1.95;;;20.90;99.90;;;;;;4964851;28;20181;-61
2022/05/22 09:02:08;;;;;;;16.77;7.63;;;20.60;99.90;;;;;;4969233;28;20047;-60
2022/05/22 09:04:40;;;;;;;15.25;6.43;;;20.70;99.90;;;;;;4928481;28;20058;-59
2022/05/22 09:07:41;;;;;;;12.80;6.60;;;20.80;99.90;;;;;;4964878;28;20081;-60
2022/05/22 09:10:20;;;;;;;18.77;8.57;;;20.80;99.90;;;;;;4956632;28;20054;-63
2022/05/22 09:13:03;;;;;;;6.10;2.30;;;20.90;99.90;;;;;;4952345;29;20051;-63
2022/05/22 09:16:13;;;;;;;16.50;7.35;;;20.90;99.90;;;;;;4966720;28;20058;-60
2022/05/22 09:19:06;;;;;;;12.90;5.00;;;20.90;99.90;;;;;;4955809;28;21722;-62
2022/05/22 09:22:10;;;;;;;8.70;2.38;;;20.80;99.90;;;;;;4971407;28;20049;-61
2022/05/22 09:24:55;;;;;;;11.20;3.42;;;20.90;99.90;;;;;;4980748;28;20053;-61
2022/05/22 09:27:50;;;;;;;8.82;2.60;;;20.80;99.90;;;;;;4989439;28;20046;-60
2022/05/22 09:30:33;;;;;;;9.45;2.83;;;20.90;99.90;;;;;;5016061;28;20068;-61
2022/05/22 09:33:08;;;;;;;8.93;2.08;;;21.10;99.90;;;;;;5004671;28;20041;-61
2022/05/22 09:36:07;;;;;;;7.65;2.63;;;21.00;99.90;;;;;;5028724;28;20037;-63
2022/05/22 09:38:51;;;;;;;11.03;2.60;;;21.00;99.90;;;;;;5007827;28;20104;-59
2022/05/22 09:41:17;;;;;;;7.50;1.98;;;;;;;;;;5013309;28;20052;-61
2022/05/22 09:43:43;;;;;;;6.78;2.17;;;;;;;;;;5012548;28;20042;-62
2022/05/22 09:46:46;;;;;;;7.63;1.77;;;21.70;99.90;;;;;;5002645;28;20038;-63
2022/05/22 09:49:22;;;;;;;9.50;2.25;;;21.80;99.90;;;;;;5021576;28;20136;-64
2022/05/22 09:52:03;;;;;;;10.10;2.63;;;21.80;99.90;;;;;;5025339;28;20524;-61
2022/05/22 09:54:47;;;;;;;14.65;6.75;;;21.80;99.90;;;;;;5027844;28;20049;-62
2022/05/22 09:57:32;;;;;;;10.35;3.00;;;21.30;99.90;;;;;;5026350;28;20057;-60
2022/05/22 10:00:18;;;;;;;7.63;1.98;;;21.50;99.90;;;;;;5028543;28;20049;-61
2022/05/22 10:02:44;;;;;;;7.13;2.13;;;;;;;;;;5010915;28;20214;-60
2022/05/22 10:05:26;;;;;;;5.25;1.95;;;21.20;99.90;;;;;;5025883;28;20046;-60
2022/05/22 10:08:04;;;;;;;10.35;2.88;;;21.30;99.90;;;;;;5030049;28;20049;-60
2022/05/22 10:10:30;;;;;;;9.30;2.35;;;;;;;;;;5030267;28;20049;-58
2022/05/22 10:13:14;;;;;;;7.78;1.90;;;20.80;99.90;;;;;;5033404;28;20555;-58
2022/05/22 10:15:45;;;;;;;6.93;1.92;;;20.90;99.90;;;;;;5033829;28;20050;-58
2022/05/22 10:18:21;;;;;;;7.70;1.50;;;20.90;99.90;;;;;;5034358;28;20493;-59
2022/05/22 10:20:58;;;;;;;5.78;1.90;;;;;;;;;;5035796;28;20532;-61
2022/05/22 10:23:54;;;;;;;7.53;2.05;;;20.90;99.90;;;;;;5029213;28;20099;-62
2022/05/22 10:26:50;;;;;;;8.60;2.10;;;20.70;99.90;;;;;;5033196;28;20379;-61
2022/05/22 10:29:34;;;;;;;11.20;1.80;;;21.20;99.90;;;;;;5034518;28;20045;-60
2022/05/22 10:32:08;;;;;;;6.53;1.75;;;21.50;99.90;;;;;;5006701;28;20038;-60
2022/05/22 10:34:57;;;;;;;12.30;1.83;;;22.00;99.90;;;;;;5012636;28;20042;-61
2022/05/22 10:37:36;;;;;;;7.33;1.60;;;22.30;99.90;;;;;;5014349;28;20512;-61
2022/05/22 10:40:05;;;;;;;4.72;1.40;;;22.50;99.90;;;;;;5022484;28;20509;-61
2022/05/22 10:42:46;;;;;;;8.77;1.60;;;22.60;99.90;;;;;;5023023;28;20438;-61
2022/05/22 10:45:36;;;;;;;10.02;1.70;;;22.50;99.90;;;;;;5021120;28;20107;-60
2022/05/22 10:48:07;;;;;;;4.82;1.42;;;22.40;99.90;;;;;;5019875;28;20041;-60
2022/05/22 10:50:32;;;;;;;9.52;3.55;;;22.30;99.90;;;;;;5009949;28;20062;-61
2022/05/22 10:52:58;;;;;;;8.50;1.90;;;;;;;;;;5001010;28;20088;-60
2022/05/22 10:55:45;;;;;;;6.53;1.38;;;22.20;99.90;;;;;;5005792;28;20056;-60
2022/05/22 10:58:33;;;;;;;9.95;2.75;;;22.80;99.90;;;;;;5008867;28;20053;-60
2022/05/22 11:01:08;;;;;;;7.53;1.58;;;22.10;99.90;;;;;;5027871;28;20033;-60
2022/05/22 11:03:35;;;;;;;6.78;1.88;;;22.20;99.90;;;;;;5035041;28;20175;-60
2022/05/22 11:06:16;;;;;;;6.70;1.58;;;22.20;99.90;;;;;;5019200;28;20053;-60
2022/05/22 11:08:48;;;;;;;10.88;2.17;;;21.90;99.90;;;;;;4989902;28;20077;-60
2022/05/22 11:11:19;;;;;;;6.22;2.40;;;21.70;99.90;;;;;;5015137;28;20111;-60
2022/05/22 11:13:46;;;;;;;7.68;2.42;;;;;;;;;;4997762;28;20509;-60
2022/05/22 11:16:18;;;;;;;7.32;2.17;;;22.00;99.90;;;;;;4999661;28;20041;-60
2022/05/22 11:18:47;;;;;;;7.93;1.67;;;22.40;99.90;;;;;;5013797;28;20054;-60
2022/05/22 11:21:24;;;;;;;6.05;2.55;;;22.10;99.90;;;;;;5030741;28;20613;-60
2022/05/22 11:24:05;;;;;;;6.18;1.88;;;22.80;99.90;;;;;;5035293;28;20060;-60
2022/05/22 11:27:11;;;;;;;6.03;1.98;;;22.60;99.90;;;;;;5033447;28;20110;-60
2022/05/22 11:29:48;;;;;;;5.32;1.55;;;23.10;99.90;;;;;;4997052;28;20141;-60
2022/05/22 11:32:31;;;;;;;9.63;1.95;;;23.20;99.90;;;;;;5034068;28;20120;-60
2022/05/22 11:35:18;;;;;;;5.10;1.52;;;23.10;99.90;;;;;;5034237;28;20046;-61
2022/05/22 11:38:12;;;;;;;5.90;2.22;;;23.00;99.90;;;;;;5034412;28;20490;-60
2022/05/22 11:40:51;;;;;;;6.03;1.55;;;22.80;99.90;;;;;;5012184;28;20038;-60
2022/05/22 11:43:44;;;;;;;7.13;1.65;;;23.10;99.90;;;;;;5034526;28;20111;-60
2022/05/22 11:46:16;;;;;;;6.05;1.63;;;23.10;99.90;;;;;;5015356;28;20041;-60
2022/05/22 11:49:03;;;;;;;7.95;2.97;;;23.10;99.90;;;;;;5034482;28;20053;-60
2022/05/22 11:51:57;;;;;;;6.35;2.03;;;23.30;99.90;;;;;;5028860;28;20045;-60
2022/05/22 11:54:50;;;;;;;4.53;1.30;;;23.20;99.90;;;;;;5012711;28;20049;-60
2022/05/22 11:57:22;;;;;;;7.38;1.60;;;23.40;99.90;;;;;;5012481;28;20545;-60
2022/05/22 12:00:08;;;;;;;6.55;1.27;;;23.50;99.90;;;;;;5011640;28;20472;-60
2022/05/22 12:02:46;;;;;;;7.18;2.50;;;23.60;99.90;;;;;;5009883;28;20117;-60
2022/05/22 12:05:22;;;;;;;4.53;1.40;;;;;;;;;;5033874;28;20049;-60
2022/05/22 12:07:48;;;;;;;5.57;1.55;;;;;;;;;;5033136;28;20099;-60
2022/05/22 12:10:23;;;;;;;7.10;2.45;;;24.00;99.90;;;;;;5029617;28;20139;-60
2022/05/22 12:13:08;;;;;;;6.00;1.70;;;23.70;99.90;;;;;;4996385;28;20057;-60
2022/05/22 12:15:49;;;;;;;6.75;1.60;;;23.70;99.90;;;;;;5028021;28;20041;-60
2022/05/22 12:18:45;;;;;;;4.80;1.85;;;24.30;99.90;;;;;;5032524;28;20045;-60
2022/05/22 12:21:28;;;;;;;4.75;1.48;;;24.30;99.90;;;;;;5033622;28;20173;-61
2022/05/22 12:24:34;;;;;;;8.02;1.85;;;23.90;99.90;;;;;;5029670;28;20037;-60
2022/05/22 12:27:13;;;;;;;4.78;1.55;;;23.80;99.90;;;;;;4975407;28;20228;-60
2022/05/22 12:29:46;;;;;;;5.72;1.42;;;;;;;;;;4974443;28;20129;-59
2022/05/22 12:32:42;;;;;;;4.03;1.20;;;24.00;99.90;;;;;;4991699;28;20054;-59
2022/05/22 12:35:08;;;;;;;5.75;1.67;;;;;;;;;;4990921;28;20677;-60
2022/05/22 12:38:02;;;;;;;7.43;4.15;;;24.00;99.90;;;;;;4974342;28;20098;-61
2022/05/22 12:40:49;;;;;;;8.60;3.25;;;23.80;99.90;;;;;;4985003;28;20570;-60
2022/05/22 12:43:22;;;;;;;6.25;1.65;;;23.80;99.90;;;;;;4990900;28;20144;-58
2022/05/22 12:45:59;;;;;;;3.03;1.50;;;23.80;99.90;;;;;;4975571;28;20196;-60
2022/05/22 12:48:33;;;;;;;6.25;2.80;;;23.40;99.90;;;;;;4990096;28;20050;-60
2022/05/22 12:51:08;;;;;;;8.55;1.48;;;23.20;99.90;;;;;;4991286;28;20129;-60
2022/05/22 12:53:34;;;;;;;5.22;1.70;;;;;;;;;;4990701;28;20054;-60
2022/05/22 12:56:31;;;;;;;5.72;1.75;;;23.10;99.90;;;;;;4991022;28;20112;-60
2022/05/22 12:58:57;;;;;;;5.72;1.20;;;;;;;;;;4989979;28;20054;-60
2022/05/22 13:01:31;;;;;;;6.03;2.33;;;23.70;99.90;;;;;;4991126;28;20050;-61
2022/05/22 13:04:00;;;;;;;4.57;1.70;;;23.60;99.90;;;;;;5012490;28;20125;-60
2022/05/22 13:06:44;;;;;;;4.65;1.27;;;23.10;98.30;;;;;;5011805;28;20042;-60
2022/05/22 13:09:23;;;;;;;5.97;1.42;;;23.50;99.90;;;;;;5030725;28;20065;-60
2022/05/22 13:11:57;;;;;;;4.30;1.60;;;23.80;99.40;;;;;;5032628;28;20041;-60
2022/05/22 13:14:30;;;;;;;6.88;2.25;;;23.80;99.90;;;;;;5031622;28;20092;-60
2022/05/22 13:16:56;;;;;;;5.15;1.17;;;23.50;99.70;;;;;;5013688;28;20042;-60
2022/05/22 13:19:25;;;;;;;4.15;1.40;;;23.40;99.20;;;;;;5032600;28;20064;-60
2022/05/22 13:21:52;;;;;;;5.80;1.17;;;;;;;;;;4994848;28;20457;-60
2022/05/22 13:24:18;;;;;;;3.85;1.65;;;;;;;;;;5030482;28;20052;-60
2022/05/22 13:27:20;;;;;;;4.65;1.45;;;23.50;99.90;;;;;;5010972;28;20038;-60
2022/05/22 13:30:04;;;;;;;8.80;1.52;;;23.60;98.80;;;;;;5011446;28;20082;-59
2022/05/22 13:32:32;;;;;;;7.03;1.48;;;23.80;99.50;;;;;;5031008;28;20045;-61
2022/05/22 13:34:58;;;;;;;4.85;1.20;;;;;;;;;;4995421;28;20133;-59
2022/05/22 13:37:30;;;;;;;5.05;1.10;;;24.20;99.90;;;;;;5018683;28;20045;-59
2022/05/22 13:40:08;;;;;;;4.28;1.38;;;24.50;99.90;;;;;;5031350;28;20056;-60
2022/05/22 13:42:58;;;;;;;5.13;1.38;;;24.80;98.40;;;;;;5030715;28;20045;-60
2022/05/22 13:45:27;;;;;;;4.13;1.15;;;24.50;99.80;;;;;;5032490;28;20058;-60
2022/05/22 13:48:09;;;;;;;5.38;1.30;;;24.30;97.60;;;;;;5031984;28;20085;-60
2022/05/22 13:53:59;;;;;;;4.63;1.73;;;23.60;99.90;;;;;;5018514;28;20057;-59
2022/05/22 13:56:55;;;;;;;4.15;1.17;;;23.70;99.90;;;;;;5024671;28;20060;-60
2022/05/22 13:59:35;;;;;;;4.63;1.95;;;23.90;99.30;;;;;;5037618;28;20136;-60
2022/05/22 14:02:10;;;;;;;5.85;2.17;;;23.90;99.90;;;;;;5008356;28;20469;-60
2022/05/22 14:04:42;;;;;;;3.72;1.30;;;24.20;98.60;;;;;;5032247;28;20125;-60
2022/05/22 14:07:17;;;;;;;10.63;1.73;;;24.10;97.50;;;;;;5019343;28;20402;-60
2022/05/22 14:09:44;;;;;;;4.15;0.95;;;23.80;98.60;;;;;;5038607;28;20046;-60
2022/05/22 14:12:12;;;;;;;4.32;1.30;;;23.50;99.20;;;;;;5002548;28;20063;-60
2022/05/22 14:14:40;;;;;;;5.10;1.02;;;;;;;;;;5000931;28;20065;-60
2022/05/22 14:17:08;;;;;;;3.38;1.10;;;23.70;98.80;;;;;;5035096;28;20045;-60
2022/05/22 14:19:41;;;;;;;4.15;1.38;;;24.00;98.00;;;;;;5015385;28;20100;-60
2022/05/22 14:22:11;;;;;;;3.58;1.13;;;24.10;98.30;;;;;;5020181;28;20058;-60
2022/05/22 14:24:59;;;;;;;6.13;1.52;;;24.00;99.10;;;;;;5038011;28;20049;-60